Time;durP1;ratioP1;P1;durP2;ratioP2;P2;SDS_P1;SDS_P2;PMS_P1;PMS_P2;Temp;Humidity;BMP_temperature;BMP_pressure;BME280_temperature;BME280_humidity;BME280_pressure;Samples;Min_cycle;Max_cycle;Signal;HPM_P1;HPM_P2
2021/03/21 00:01:45;;;;;;;0.97;0.87;;;6.80;99.90;;;;;;4956583;28;20350;-87
2021/03/21 00:04:13;;;;;;;2.60;1.10;;;6.80;99.90;;;;;;4982508;28;20211;-86
2021/03/21 00:06:39;;;;;;;1.30;1.03;;;6.80;99.90;;;;;;4963976;28;20195;-86
2021/03/21 00:09:05;;;;;;;0.37;0.37;;;6.80;99.90;;;;;;4984932;28;20258;-86
2021/03/21 00:11:32;;;;;;;0.40;0.40;;;6.80;99.90;;;;;;4985266;28;20254;-86
2021/03/21 00:13:58;;;;;;;1.43;1.33;;;6.80;99.90;;;;;;4984610;28;20987;-86
2021/03/21 00:16:24;;;;;;;1.30;1.17;;;6.80;99.90;;;;;;4999749;28;20230;-87
2021/03/21 00:18:50;;;;;;;0.97;0.97;;;6.80;99.90;;;;;;4968370;28;20222;-85
2021/03/21 00:21:16;;;;;;;0.97;0.97;;;6.80;99.90;;;;;;4968701;28;20201;-86
2021/03/21 00:23:42;;;;;;;1.70;1.23;;;6.80;99.90;;;;;;4983716;28;20218;-85
2021/03/21 00:26:10;;;;;;;2.63;1.70;;;6.80;99.90;;;;;;4984339;28;20807;-84
2021/03/21 00:28:37;;;;;;;0.70;0.70;;;6.80;99.90;;;;;;4983948;28;20231;-84
2021/03/21 00:31:05;;;;;;;1.90;0.57;;;6.80;99.90;;;;;;5001650;28;20301;-85
2021/03/21 00:33:34;;;;;;;2.67;0.80;;;6.80;99.90;;;;;;4983807;28;20223;-86
2021/03/21 00:36:01;;;;;;;3.30;1.60;;;6.80;99.90;;;;;;4982795;28;20257;-85
2021/03/21 00:38:32;;;;;;;2.57;2.23;;;6.70;99.90;;;;;;5000364;28;20234;-86
2021/03/21 00:40:59;;;;;;;1.97;1.87;;;6.70;99.90;;;;;;4984125;28;20249;-84
2021/03/21 00:43:25;;;;;;;0.30;0.30;;;6.80;99.90;;;;;;4983655;28;20217;-85
2021/03/21 00:45:51;;;;;;;2.07;1.77;;;6.70;99.90;;;;;;4983767;28;20201;-87
2021/03/21 00:48:23;;;;;;;0.13;0.13;;;6.70;99.90;;;;;;4998255;28;20290;-86
2021/03/21 00:50:49;;;;;;;1.57;1.47;;;6.70;99.90;;;;;;4979105;28;20223;-86
2021/03/21 00:53:16;;;;;;;1.43;0.80;;;6.70;99.90;;;;;;4988583;28;20219;-87
2021/03/21 00:55:42;;;;;;;0.80;0.80;;;6.70;99.90;;;;;;4996793;28;20222;-88
2021/03/21 00:58:08;;;;;;;0.60;0.60;;;6.70;99.90;;;;;;4962903;28;20719;-88
2021/03/21 01:00:44;;;;;;;1.73;1.63;;;6.70;99.90;;;;;;4964220;28;20295;-85
2021/03/21 01:03:10;;;;;;;1.70;1.10;;;6.70;99.90;;;;;;4997538;28;20219;-86
2021/03/21 01:05:48;;;;;;;1.23;1.03;;;6.70;99.90;;;;;;4979875;28;20223;-86
2021/03/21 01:08:21;;;;;;;0.57;0.57;;;6.70;99.90;;;;;;4997024;28;20210;-87
2021/03/21 01:10:49;;;;;;;6.53;2.67;;;6.70;99.90;;;;;;4999338;28;20212;-86
2021/03/21 01:13:16;;;;;;;1.27;1.20;;;6.70;99.90;;;;;;4965304;28;20234;-85
2021/03/21 01:15:42;;;;;;;2.20;1.73;;;6.70;99.90;;;;;;4983709;28;20192;-85
2021/03/21 01:18:13;;;;;;;3.37;1.03;;;6.70;99.90;;;;;;5000778;28;20195;-85
2021/03/21 01:20:39;;;;;;;4.27;3.20;;;6.70;99.90;;;;;;4984222;28;20224;-86
2021/03/21 01:23:05;;;;;;;0.40;0.40;;;6.70;99.90;;;;;;4984872;28;20940;-84
2021/03/21 01:25:31;;;;;;;0.50;0.50;;;6.70;99.90;;;;;;4968998;28;20232;-85
2021/03/21 01:27:56;;;;;;;0.30;0.30;;;6.70;99.90;;;;;;4968419;28;20223;-84
2021/03/21 01:30:25;;;;;;;0.47;0.47;;;6.70;99.90;;;;;;4970273;28;20206;-87
2021/03/21 01:32:53;;;;;;;0.90;0.83;;;6.70;99.90;;;;;;5001098;28;20258;-86
2021/03/21 01:35:19;;;;;;;0.20;0.20;;;6.70;99.90;;;;;;4984042;28;20270;-87
2021/03/21 01:37:44;;;;;;;1.00;1.00;;;6.70;99.90;;;;;;4982623;28;20223;-87
2021/03/21 01:40:13;;;;;;;0.53;0.53;;;6.70;99.90;;;;;;4969258;28;20305;-86
2021/03/21 01:42:41;;;;;;;4.90;1.13;;;6.70;99.90;;;;;;4975772;28;20192;-87
2021/03/21 01:45:36;;;;;;;2.30;1.10;;;6.80;99.90;;;;;;4987970;28;20677;-86
2021/03/21 01:48:14;;;;;;;1.67;1.50;;;6.80;99.90;;;;;;4984032;28;20223;-88
2021/03/21 01:50:58;;;;;;;1.67;1.23;;;6.80;99.90;;;;;;4984611;28;20220;-86
2021/03/21 01:53:28;;;;;;;4.93;2.20;;;6.80;99.90;;;;;;4985037;28;20228;-86
2021/03/21 01:55:55;;;;;;;0.77;0.77;;;6.80;99.90;;;;;;4986426;28;20283;-86
2021/03/21 01:58:23;;;;;;;1.30;0.70;;;6.80;99.90;;;;;;4984400;28;21232;-86
2021/03/21 02:00:51;;;;;;;0.67;0.67;;;6.80;99.90;;;;;;4994860;28;20212;-87
2021/03/21 02:03:17;;;;;;;1.07;1.07;;;6.80;99.90;;;;;;4969992;28;20258;-87
2021/03/21 02:05:43;;;;;;;0.50;0.50;;;6.80;99.90;;;;;;4983080;28;21422;-86
2021/03/21 02:08:19;;;;;;;2.40;2.10;;;6.80;99.90;;;;;;4983553;28;20219;-87
2021/03/21 02:10:52;;;;;;;0.50;0.50;;;6.80;99.90;;;;;;4984511;28;20215;-88
2021/03/21 02:13:34;;;;;;;0.40;0.40;;;6.80;99.90;;;;;;5000226;28;20699;-86
2021/03/21 02:16:13;;;;;;;0.43;0.43;;;6.90;99.90;;;;;;4984207;28;20331;-83
2021/03/21 02:19:13;;;;;;;1.63;0.97;;;6.90;99.90;;;;;;4984620;28;20326;-85
2021/03/21 02:21:49;;;;;;;0.93;0.50;;;6.90;99.90;;;;;;4984053;28;20180;-86
2021/03/21 02:24:37;;;;;;;0.87;0.60;;;6.90;99.90;;;;;;4987389;28;20188;-84
2021/03/21 02:27:13;;;;;;;0.63;0.63;;;7.00;99.90;;;;;;4985253;28;20237;-85
2021/03/21 02:29:55;;;;;;;0.40;0.40;;;7.00;99.90;;;;;;4981988;28;20798;-84
2021/03/21 02:32:26;;;;;;;0.40;0.40;;;7.00;99.90;;;;;;4979412;28;20259;-86
2021/03/21 02:35:09;;;;;;;1.37;0.57;;;7.00;99.90;;;;;;4981667;28;20691;-86
2021/03/21 02:37:59;;;;;;;0.27;0.27;;;7.00;99.90;;;;;;4978897;28;20224;-85
2021/03/21 02:40:43;;;;;;;0.40;0.40;;;7.00;99.90;;;;;;4983844;28;20239;-86
2021/03/21 02:43:27;;;;;;;0.30;0.30;;;7.00;99.90;;;;;;4984044;28;20250;-85
2021/03/21 02:45:57;;;;;;;0.20;0.20;;;7.00;99.90;;;;;;4983888;28;20200;-85
2021/03/21 02:48:31;;;;;;;1.07;0.97;;;7.00;99.90;;;;;;4985961;28;20192;-85
2021/03/21 02:51:03;;;;;;;0.40;0.40;;;7.00;99.90;;;;;;4983651;28;20234;-84
2021/03/21 02:54:07;;;;;;;2.00;1.27;;;7.00;99.90;;;;;;4983723;28;20565;-87
2021/03/21 02:56:33;;;;;;;0.40;0.40;;;7.00;99.90;;;;;;4937515;28;20224;-84
2021/03/21 02:59:07;;;;;;;0.53;0.53;;;7.00;99.90;;;;;;4956470;28;20243;-85
2021/03/21 03:01:39;;;;;;;0.47;0.47;;;6.90;99.90;;;;;;4983986;28;20592;-84
2021/03/21 03:04:17;;;;;;;1.93;1.83;;;6.90;99.90;;;;;;4983343;28;20250;-85
2021/03/21 03:06:52;;;;;;;0.20;0.20;;;6.90;99.90;;;;;;4984078;28;20270;-86
2021/03/21 03:09:32;;;;;;;0.20;0.20;;;6.90;99.90;;;;;;4984211;28;21135;-86
2021/03/21 03:12:08;;;;;;;0.77;0.77;;;6.80;99.90;;;;;;4993566;28;20208;-86
2021/03/21 03:14:38;;;;;;;0.13;0.13;;;6.80;99.90;;;;;;5001868;28;20306;-86
2021/03/21 03:17:26;;;;;;;0.77;0.40;;;6.80;99.90;;;;;;4985764;28;20219;-86
2021/03/21 03:20:06;;;;;;;0.37;0.37;;;6.80;99.90;;;;;;5001629;28;20481;-84
2021/03/21 03:22:44;;;;;;;0.60;0.60;;;6.90;99.90;;;;;;5003550;28;20222;-86
2021/03/21 03:25:37;;;;;;;3.13;2.20;;;6.90;99.90;;;;;;5000858;28;20341;-85
2021/03/21 03:28:16;;;;;;;0.20;0.20;;;6.90;99.90;;;;;;4985589;28;20235;-85
2021/03/21 03:30:59;;;;;;;0.73;0.60;;;6.90;99.90;;;;;;4984938;28;20183;-83
2021/03/21 03:33:25;;;;;;;1.03;0.77;;;6.90;99.90;;;;;;5003003;28;20225;-86
2021/03/21 03:35:52;;;;;;;0.47;0.33;;;6.90;99.90;;;;;;4967870;28;20229;-85
2021/03/21 03:38:20;;;;;;;10.17;0.50;;;6.90;99.90;;;;;;4966400;28;20258;-86
2021/03/21 03:40:47;;;;;;;0.30;0.30;;;6.90;99.90;;;;;;4984305;28;20227;-85
2021/03/21 03:43:23;;;;;;;0.40;0.40;;;6.90;99.90;;;;;;4985304;28;20239;-84
2021/03/21 03:46:07;;;;;;;0.10;0.10;;;6.90;99.90;;;;;;4985172;28;20197;-86
2021/03/21 03:49:01;;;;;;;0.10;0.10;;;6.80;99.90;;;;;;4986643;28;20621;-86
2021/03/21 03:52:02;;;;;;;0.10;0.10;;;6.70;99.90;;;;;;5001384;28;20692;-86
2021/03/21 03:54:37;;;;;;;4.37;0.80;;;6.70;99.90;;;;;;5001983;28;20681;-86
2021/03/21 03:57:05;;;;;;;0.10;0.10;;;6.70;99.90;;;;;;5002738;28;20239;-86
2021/03/21 04:00:09;;;;;;;0.73;0.50;;;6.70;99.90;;;;;;5000451;28;20231;-86
2021/03/21 04:03:07;;;;;;;0.10;0.10;;;6.60;99.90;;;;;;4995434;28;20210;-85
2021/03/21 04:05:40;;;;;;;0.30;0.30;;;6.60;99.90;;;;;;5000300;28;20676;-86
2021/03/21 04:08:36;;;;;;;0.53;0.53;;;6.60;99.90;;;;;;5001068;28;20246;-86
2021/03/21 04:11:05;;;;;;;0.30;0.13;;;6.60;99.90;;;;;;5000387;28;20266;-86
2021/03/21 04:13:42;;;;;;;0.40;0.40;;;6.60;99.90;;;;;;5001726;28;20270;-85
2021/03/21 04:16:12;;;;;;;0.80;0.80;;;6.70;99.90;;;;;;4983588;28;20691;-85
2021/03/21 04:18:52;;;;;;;0.20;0.20;;;6.80;99.90;;;;;;5001124;28;20300;-85
2021/03/21 04:21:29;;;;;;;1.63;1.53;;;6.70;99.90;;;;;;4986189;28;20194;-85
2021/03/21 04:24:21;;;;;;;0.20;0.20;;;6.70;99.90;;;;;;4984186;28;20310;-85
2021/03/21 04:26:59;;;;;;;0.40;0.40;;;6.80;99.90;;;;;;5002085;28;21201;-87
2021/03/21 04:29:31;;;;;;;0.27;0.27;;;6.70;99.90;;;;;;4984279;28;20674;-86
2021/03/21 04:32:06;;;;;;;0.83;0.73;;;6.70;99.90;;;;;;4999727;28;20226;-85
2021/03/21 04:34:34;;;;;;;0.60;0.57;;;6.80;99.90;;;;;;4983862;28;20218;-85
2021/03/21 04:37:01;;;;;;;0.77;0.77;;;6.80;99.90;;;;;;4981847;28;20302;-85
2021/03/21 04:39:32;;;;;;;3.83;0.40;;;6.80;99.90;;;;;;4968608;28;20207;-86
2021/03/21 04:42:02;;;;;;;3.07;0.50;;;6.80;99.90;;;;;;4984937;28;20221;-85
2021/03/21 04:44:35;;;;;;;0.33;0.23;;;6.80;99.90;;;;;;4991060;28;20229;-85
2021/03/21 04:47:21;;;;;;;4.20;0.40;;;6.70;99.90;;;;;;4996379;28;20219;-86
2021/03/21 04:49:47;;;;;;;0.67;0.67;;;6.70;99.90;;;;;;4979861;28;20305;-85
2021/03/21 04:52:38;;;;;;;0.17;0.17;;;6.70;99.90;;;;;;4982229;28;20215;-86
2021/03/21 04:55:11;;;;;;;0.37;0.37;;;6.70;99.90;;;;;;4974014;28;20231;-85
2021/03/21 04:57:43;;;;;;;1.07;1.03;;;6.80;99.90;;;;;;4984247;28;20183;-86
2021/03/21 05:00:20;;;;;;;0.10;0.10;;;6.70;99.90;;;;;;4985940;28;20326;-85
2021/03/21 05:02:51;;;;;;;1.07;1.03;;;6.70;99.90;;;;;;5001972;28;20229;-85
2021/03/21 05:05:31;;;;;;;0.20;0.20;;;6.70;99.90;;;;;;4984056;28;20215;-86
2021/03/21 05:08:09;;;;;;;0.10;0.10;;;6.70;99.90;;;;;;5002543;28;20219;-86
2021/03/21 05:10:42;;;;;;;1.60;1.43;;;6.70;99.90;;;;;;4984235;28;20561;-86
2021/03/21 05:13:20;;;;;;;0.73;0.73;;;6.70;99.90;;;;;;4975344;28;20319;-86
2021/03/21 05:15:58;;;;;;;0.53;0.53;;;6.70;99.90;;;;;;4969759;28;20258;-85
2021/03/21 05:18:49;;;;;;;1.00;0.67;;;6.70;99.90;;;;;;4974173;28;20176;-85
2021/03/21 05:21:39;;;;;;;0.10;0.10;;;6.70;99.90;;;;;;4973088;28;20215;-85
2021/03/21 05:24:33;;;;;;;4.80;1.57;;;6.70;99.90;;;;;;4971870;28;20369;-85
2021/03/21 05:27:08;;;;;;;1.33;0.40;;;6.60;99.90;;;;;;4970468;28;20325;-85
2021/03/21 05:29:43;;;;;;;1.57;1.47;;;6.60;99.90;;;;;;4968905;28;20231;-85
2021/03/21 05:32:11;;;;;;;1.87;1.07;;;6.70;99.90;;;;;;4969778;28;20232;-85
2021/03/21 05:34:37;;;;;;;0.10;0.10;;;6.60;99.90;;;;;;4974111;28;20275;-86
2021/03/21 05:37:27;;;;;;;5.13;0.77;;;6.60;99.90;;;;;;4935057;28;20227;-85
2021/03/21 05:40:02;;;;;;;0.70;0.70;;;6.50;99.90;;;;;;4987832;28;20685;-86
2021/03/21 05:42:33;;;;;;;0.20;0.20;;;6.50;99.90;;;;;;4968997;28;20191;-84
2021/03/21 05:45:05;;;;;;;1.40;0.97;;;6.50;99.90;;;;;;4973570;28;20315;-84
2021/03/21 05:47:56;;;;;;;0.30;0.30;;;6.50;99.90;;;;;;4969691;28;20234;-89
2021/03/21 05:50:52;;;;;;;0.73;0.73;;;6.50;99.90;;;;;;4970121;28;20227;-85
2021/03/21 05:53:45;;;;;;;0.93;0.50;;;6.50;99.90;;;;;;4969341;28;20216;-85
2021/03/21 05:56:30;;;;;;;0.30;0.30;;;6.50;99.90;;;;;;4971381;28;20207;-86
2021/03/21 05:59:17;;;;;;;1.80;0.77;;;6.50;99.90;;;;;;4971461;28;20323;-86
2021/03/21 06:02:18;;;;;;;1.93;1.77;;;6.50;99.90;;;;;;4974524;28;20224;-83
2021/03/21 06:05:08;;;;;;;0.53;0.53;;;6.50;99.90;;;;;;4925911;28;20636;-85
2021/03/21 06:08:00;;;;;;;0.20;0.20;;;6.40;99.90;;;;;;4972973;28;20228;-84
2021/03/21 06:10:36;;;;;;;3.17;1.67;;;6.40;99.90;;;;;;4975076;28;21143;-85
2021/03/21 06:13:18;;;;;;;3.70;3.20;;;6.40;99.90;;;;;;4988528;28;20242;-84
2021/03/21 06:16:32;;;;;;;3.50;1.03;;;6.40;99.90;;;;;;4997152;28;20298;-86
2021/03/21 06:19:30;;;;;;;2.07;1.00;;;6.40;99.90;;;;;;4995959;28;20600;-87
2021/03/21 06:22:09;;;;;;;2.07;1.23;;;6.40;99.90;;;;;;5004338;28;20230;-84
2021/03/21 06:25:20;;;;;;;1.47;1.37;;;6.30;99.90;;;;;;4986504;28;20227;-85
2021/03/21 06:28:14;;;;;;;1.00;0.50;;;6.30;99.90;;;;;;4962943;28;20625;-84
2021/03/21 06:30:57;;;;;;;0.53;0.53;;;6.30;99.90;;;;;;4986628;28;20203;-84
2021/03/21 06:33:36;;;;;;;1.77;1.30;;;6.30;99.90;;;;;;4986031;28;20283;-88
2021/03/21 06:36:18;;;;;;;0.57;0.57;;;6.30;99.90;;;;;;4983018;28;20215;-87
2021/03/21 06:38:50;;;;;;;1.03;0.47;;;6.20;99.90;;;;;;5002966;28;20253;-86
2021/03/21 06:41:46;;;;;;;5.53;2.37;;;6.20;99.90;;;;;;4987347;28;20212;-86
2021/03/21 06:44:40;;;;;;;1.20;0.53;;;6.20;99.90;;;;;;4996404;28;20234;-85
2021/03/21 06:47:37;;;;;;;2.03;1.23;;;6.30;99.90;;;;;;4993791;28;20318;-85
2021/03/21 06:50:08;;;;;;;2.63;1.13;;;6.30;99.90;;;;;;5001575;28;20230;-87
2021/03/21 06:52:53;;;;;;;0.87;0.60;;;6.30;99.90;;;;;;5003238;28;20622;-85
2021/03/21 06:55:31;;;;;;;3.03;1.20;;;6.30;99.90;;;;;;5003643;28;20667;-85
2021/03/21 06:58:34;;;;;;;1.97;0.77;;;6.30;99.90;;;;;;4985504;28;20219;-86
2021/03/21 07:01:18;;;;;;;0.83;0.53;;;6.30;99.90;;;;;;4996779;28;20222;-84
2021/03/21 07:04:09;;;;;;;7.57;1.87;;;6.40;99.90;;;;;;4985596;28;20203;-89
2021/03/21 07:06:53;;;;;;;0.30;0.30;;;6.40;99.90;;;;;;4997388;28;20204;-89
2021/03/21 07:09:47;;;;;;;2.53;0.73;;;6.40;99.90;;;;;;4997901;28;20245;-87
2021/03/21 07:12:28;;;;;;;15.27;5.70;;;6.40;99.90;;;;;;4984626;28;20223;-86
2021/03/21 07:15:13;;;;;;;1.90;1.03;;;6.50;99.90;;;;;;5001761;28;20216;-86
2021/03/21 07:17:45;;;;;;;1.33;1.33;;;6.50;99.90;;;;;;4999399;28;20219;-87
2021/03/21 07:20:36;;;;;;;2.53;1.07;;;6.60;99.90;;;;;;4998218;28;20342;-86
2021/03/21 07:23:11;;;;;;;4.13;0.53;;;6.50;99.90;;;;;;5000490;28;20222;-86
2021/03/21 07:26:01;;;;;;;1.33;1.33;;;6.60;99.90;;;;;;5002896;28;20229;-86
2021/03/21 07:28:32;;;;;;;5.57;2.87;;;6.60;99.90;;;;;;4993643;28;20271;-86
2021/03/21 07:31:22;;;;;;;3.57;1.37;;;6.70;99.90;;;;;;5003435;28;20222;-86
2021/03/21 07:34:24;;;;;;;1.87;1.03;;;6.70;99.90;;;;;;5001005;28;20201;-88
2021/03/21 07:37:25;;;;;;;1.90;1.07;;;6.60;99.90;;;;;;4982914;28;20191;-86
2021/03/21 07:40:10;;;;;;;0.47;0.47;;;6.70;99.90;;;;;;4984962;28;20215;-88
2021/03/21 07:42:44;;;;;;;3.47;1.03;;;6.70;99.90;;;;;;4985214;28;20249;-87
2021/03/21 07:45:23;;;;;;;1.07;1.07;;;6.70;99.90;;;;;;5003050;28;20186;-89
2021/03/21 07:48:12;;;;;;;1.47;1.47;;;6.80;99.90;;;;;;5001338;28;20225;-88
2021/03/21 07:50:52;;;;;;;0.47;0.47;;;6.80;99.90;;;;;;4984904;28;20281;-88
2021/03/21 07:53:44;;;;;;;1.30;0.73;;;6.80;99.90;;;;;;5003069;28;20215;-88
2021/03/21 07:56:18;;;;;;;1.07;0.63;;;6.90;99.90;;;;;;4995375;28;20249;-86
2021/03/21 07:58:52;;;;;;;1.57;1.37;;;6.90;99.90;;;;;;5001695;28;20237;-86
2021/03/21 08:01:20;;;;;;;5.60;2.60;;;6.90;99.90;;;;;;5002347;28;20228;-86
2021/03/21 08:04:05;;;;;;;0.80;0.80;;;6.90;99.90;;;;;;4984548;28;20206;-87
2021/03/21 08:06:39;;;;;;;1.20;1.07;;;6.90;99.90;;;;;;5004718;28;20222;-86
2021/03/21 08:09:20;;;;;;;5.63;2.43;;;7.00;99.90;;;;;;4984350;28;20257;-86
2021/03/21 08:11:51;;;;;;;1.63;1.53;;;7.00;99.90;;;;;;4984191;28;20239;-85
2021/03/21 08:14:29;;;;;;;3.90;2.10;;;7.00;99.90;;;;;;5001272;28;20281;-86
2021/03/21 08:16:58;;;;;;;0.50;0.50;;;6.90;99.90;;;;;;4976237;28;20261;-90
2021/03/21 08:19:30;;;;;;;0.30;0.30;;;7.00;99.90;;;;;;4984553;28;20250;-88
2021/03/21 08:21:57;;;;;;;3.90;1.37;;;7.10;99.90;;;;;;4999236;28;20686;-88
2021/03/21 08:24:34;;;;;;;9.07;2.30;;;7.00;99.90;;;;;;5001581;28;20196;-87
2021/03/21 08:27:19;;;;;;;9.73;0.80;;;7.10;99.90;;;;;;4984738;28;20218;-88
2021/03/21 08:30:05;;;;;;;4.40;1.37;;;7.10;99.90;;;;;;5001922;28;20227;-86
2021/03/21 08:32:34;;;;;;;2.80;1.10;;;7.10;99.90;;;;;;5001765;28;20267;-86
2021/03/21 08:35:16;;;;;;;0.97;0.50;;;7.10;99.90;;;;;;5002014;28;20211;-85
2021/03/21 08:37:46;;;;;;;0.37;0.37;;;7.10;99.90;;;;;;4998609;28;20268;-87
2021/03/21 08:40:35;;;;;;;0.20;0.20;;;7.10;99.90;;;;;;5002416;28;20602;-86
2021/03/21 08:43:26;;;;;;;5.43;1.33;;;7.00;99.90;;;;;;5000615;28;20258;-87
2021/03/21 08:46:01;;;;;;;0.30;0.30;;;6.90;99.90;;;;;;4999965;28;20250;-87
2021/03/21 08:48:38;;;;;;;3.40;1.03;;;7.10;99.90;;;;;;4995715;28;20195;-88
2021/03/21 08:51:04;;;;;;;0.23;0.23;;;7.10;99.90;;;;;;5002080;28;20221;-88
2021/03/21 08:53:59;;;;;;;0.73;0.73;;;7.10;99.90;;;;;;4983847;28;20223;-87
2021/03/21 08:56:36;;;;;;;0.63;0.63;;;7.10;99.90;;;;;;4994326;28;20370;-87
2021/03/21 08:59:28;;;;;;;6.80;1.13;;;7.10;99.90;;;;;;4982839;28;20253;-87
2021/03/21 09:02:01;;;;;;;0.50;0.50;;;7.10;99.90;;;;;;4983425;28;20714;-87
2021/03/21 09:04:27;;;;;;;5.57;2.53;;;7.00;99.90;;;;;;5001346;28;20609;-87
2021/03/21 09:06:53;;;;;;;4.00;0.87;;;7.10;99.90;;;;;;4967418;28;20234;-88
2021/03/21 09:09:29;;;;;;;5.90;2.37;;;7.10;99.90;;;;;;4984409;28;20547;-88
2021/03/21 09:12:17;;;;;;;1.47;1.37;;;7.20;99.90;;;;;;5001488;28;20219;-88
2021/03/21 09:14:43;;;;;;;1.90;1.33;;;7.10;99.90;;;;;;5001057;28;20254;-87
2021/03/21 09:17:22;;;;;;;4.57;2.50;;;7.20;99.90;;;;;;4966188;28;20306;-87
2021/03/21 09:19:50;;;;;;;6.03;2.70;;;7.20;99.90;;;;;;4982266;28;20229;-87
2021/03/21 09:22:29;;;;;;;4.93;1.50;;;7.30;99.90;;;;;;4999228;28;20219;-87
2021/03/21 09:25:24;;;;;;;1.53;0.73;;;7.30;99.90;;;;;;4980614;28;20218;-87
2021/03/21 09:27:50;;;;;;;0.83;0.60;;;7.40;99.90;;;;;;4997785;28;20249;-87
2021/03/21 09:30:21;;;;;;;7.73;1.60;;;7.30;99.90;;;;;;4964324;28;20245;-87
2021/03/21 09:33:27;;;;;;;1.33;1.00;;;7.30;99.90;;;;;;4979003;28;20309;-88
2021/03/21 09:36:12;;;;;;;0.80;0.50;;;7.50;99.90;;;;;;4999403;28;20219;-87
2021/03/21 09:39:16;;;;;;;2.53;2.00;;;7.60;99.90;;;;;;4982234;28;20214;-87
2021/03/21 09:41:43;;;;;;;3.10;1.70;;;7.50;99.90;;;;;;4979234;28;20370;-87
2021/03/21 09:44:40;;;;;;;7.50;0.80;;;7.60;99.90;;;;;;4970994;28;20278;-86
2021/03/21 09:47:15;;;;;;;8.03;1.13;;;7.50;99.90;;;;;;5002565;28;20219;-89
2021/03/21 09:50:20;;;;;;;18.23;1.93;;;7.80;99.90;;;;;;5004337;28;20295;-88
2021/03/21 09:53:02;;;;;;;1.47;1.23;;;8.20;99.90;;;;;;5001283;28;20333;-88
2021/03/21 09:55:47;;;;;;;10.87;1.67;;;8.20;99.90;;;;;;5002287;28;20277;-89
2021/03/21 09:58:19;;;;;;;2.33;0.73;;;8.20;99.90;;;;;;4983997;28;20210;-87
2021/03/21 10:01:23;;;;;;;0.83;0.63;;;8.40;99.90;;;;;;5000671;28;20219;-87
2021/03/21 10:04:35;;;;;;;0.60;0.60;;;8.40;99.90;;;;;;4940753;28;20225;-86
2021/03/21 10:07:14;;;;;;;0.43;0.43;;;7.90;99.90;;;;;;4984021;28;20295;-88
2021/03/21 10:09:44;;;;;;;3.30;0.83;;;7.70;99.90;;;;;;4984581;28;20306;-90
2021/03/21 10:12:12;;;;;;;7.57;1.80;;;7.70;99.90;;;;;;5004762;28;20553;-88
2021/03/21 10:14:40;;;;;;;1.13;0.50;;;7.70;99.90;;;;;;4972434;28;20240;-87
2021/03/21 10:17:18;;;;;;;0.97;0.97;;;7.70;99.90;;;;;;4973304;28;20227;-89
2021/03/21 10:19:51;;;;;;;1.50;0.43;;;7.80;99.90;;;;;;4972138;28;20279;-87
2021/03/21 10:22:20;;;;;;;1.70;1.03;;;7.90;99.90;;;;;;4970391;28;20223;-87
2021/03/21 10:24:53;;;;;;;2.30;1.07;;;7.80;99.90;;;;;;4970061;28;20207;-87
2021/03/21 10:27:25;;;;;;;13.80;1.90;;;7.90;99.90;;;;;;4974154;28;20196;-89
2021/03/21 10:30:01;;;;;;;48.10;3.03;;;8.20;99.90;;;;;;4972023;28;20265;-89
2021/03/21 10:32:30;;;;;;;3.87;1.73;;;8.40;99.90;;;;;;4974292;28;20258;-88
2021/03/21 10:34:57;;;;;;;4.77;1.37;;;8.70;99.90;;;;;;4989372;28;20220;-88
2021/03/21 10:37:41;;;;;;;2.23;0.73;;;8.40;99.90;;;;;;4969578;28;20216;-87
2021/03/21 10:40:34;;;;;;;7.80;2.87;;;8.10;99.90;;;;;;4973377;28;20242;-89
2021/03/21 10:43:12;;;;;;;16.73;3.90;;;8.20;99.90;;;;;;4973143;28;20224;-90
2021/03/21 10:45:38;;;;;;;1.07;1.07;;;8.10;99.90;;;;;;4989340;28;20187;-87
2021/03/21 10:48:19;;;;;;;2.20;1.43;;;8.10;99.90;;;;;;4974946;28;20301;-88
2021/03/21 10:51:02;;;;;;;3.30;1.10;;;7.90;99.90;;;;;;4973993;28;20228;-88
2021/03/21 10:53:36;;;;;;;4.37;1.93;;;8.00;99.90;;;;;;4970546;28;20220;-89
2021/03/21 10:56:09;;;;;;;4.27;1.50;;;8.00;99.90;;;;;;4974622;28;20231;-88
2021/03/21 10:58:52;;;;;;;7.33;1.10;;;7.90;99.90;;;;;;4973582;28;20222;-89
2021/03/21 11:01:18;;;;;;;10.93;2.93;;;7.80;99.90;;;;;;4990123;28;20220;-87
2021/03/21 11:04:05;;;;;;;11.13;1.53;;;7.90;99.90;;;;;;4973413;28;21145;-88
2021/03/21 11:06:49;;;;;;;5.37;0.73;;;7.90;99.90;;;;;;4962378;28;20630;-88
2021/03/21 11:09:17;;;;;;;4.03;3.20;;;7.80;99.90;;;;;;4973274;28;20224;-86
2021/03/21 11:11:47;;;;;;;1.50;0.70;;;7.70;99.90;;;;;;4972956;28;20365;-87
2021/03/21 11:14:43;;;;;;;11.53;1.67;;;7.70;99.90;;;;;;4978963;28;20240;-87
2021/03/21 11:17:24;;;;;;;2.47;1.67;;;7.60;99.90;;;;;;4969256;28;20223;-86
2021/03/21 11:19:53;;;;;;;5.50;1.13;;;7.60;99.90;;;;;;4998919;28;20294;-86
2021/03/21 11:22:28;;;;;;;1.43;0.37;;;7.70;99.90;;;;;;4982970;28;20582;-86
2021/03/21 11:24:53;;;;;;;1.90;0.33;;;7.60;99.90;;;;;;4982781;28;21247;-86
2021/03/21 11:27:31;;;;;;;5.27;3.13;;;7.40;99.90;;;;;;4968742;28;20188;-86
2021/03/21 11:30:13;;;;;;;2.33;1.67;;;7.60;99.90;;;;;;4984101;28;20237;-87
2021/03/21 11:32:40;;;;;;;4.50;0.67;;;7.50;99.90;;;;;;4992234;28;20216;-88
2021/03/21 11:35:08;;;;;;;3.40;1.50;;;7.50;99.90;;;;;;4966547;28;20212;-86
2021/03/21 11:37:38;;;;;;;0.93;0.93;;;7.50;99.90;;;;;;4991085;28;20231;-89
2021/03/21 11:40:25;;;;;;;1.77;1.67;;;7.70;99.90;;;;;;4974146;28;20757;-88
2021/03/21 11:43:23;;;;;;;8.23;1.93;;;7.80;99.90;;;;;;4983711;28;20195;-87
2021/03/21 11:45:51;;;;;;;10.10;1.70;;;8.10;99.90;;;;;;4983576;28;20200;-88
2021/03/21 11:48:32;;;;;;;2.93;0.43;;;8.90;99.90;;;;;;4983806;28;20184;-87
2021/03/21 11:50:58;;;;;;;7.27;2.70;;;8.80;99.90;;;;;;4982587;28;20712;-86
2021/03/21 11:53:28;;;;;;;7.13;1.10;;;8.60;99.90;;;;;;4966703;28;20216;-88
2021/03/21 11:56:32;;;;;;;4.47;0.93;;;8.60;99.90;;;;;;4981517;28;20224;-87
2021/03/21 11:59:04;;;;;;;3.30;0.87;;;9.10;99.90;;;;;;4980682;28;20305;-87
2021/03/21 12:01:48;;;;;;;9.33;1.20;;;8.90;99.90;;;;;;4982724;28;20223;-87
2021/03/21 12:04:39;;;;;;;10.47;2.07;;;8.90;99.90;;;;;;4971661;28;20220;-86
2021/03/21 12:07:08;;;;;;;10.43;3.57;;;9.20;99.90;;;;;;4977557;28;20220;-85
2021/03/21 12:09:36;;;;;;;8.93;1.60;;;9.30;99.90;;;;;;4998913;28;20275;-85
2021/03/21 12:12:34;;;;;;;0.43;0.43;;;8.50;99.90;;;;;;4982318;28;20215;-86
2021/03/21 12:15:00;;;;;;;1.70;1.67;;;8.30;99.90;;;;;;4997912;28;20254;-85
2021/03/21 12:17:25;;;;;;;2.20;0.97;;;8.20;99.90;;;;;;4983282;28;20231;-85
2021/03/21 12:19:56;;;;;;;2.93;2.50;;;7.90;99.90;;;;;;4998462;28;20228;-86
2021/03/21 12:22:39;;;;;;;5.87;2.43;;;8.00;99.90;;;;;;4982328;28;20223;-86
2021/03/21 12:25:30;;;;;;;4.13;1.57;;;8.20;99.90;;;;;;4957997;28;20224;-88
2021/03/21 12:28:21;;;;;;;0.63;0.63;;;8.20;99.90;;;;;;4981217;28;20216;-85
2021/03/21 12:30:51;;;;;;;2.10;1.70;;;8.00;99.90;;;;;;4973690;28;20184;-86
2021/03/21 12:33:26;;;;;;;7.70;1.23;;;8.00;99.90;;;;;;4992042;28;20243;-85
2021/03/21 12:36:12;;;;;;;2.37;0.83;;;8.20;99.90;;;;;;4981844;28;20234;-86
2021/03/21 12:38:42;;;;;;;2.57;1.27;;;8.20;99.90;;;;;;4998638;28;20223;-86
2021/03/21 12:41:34;;;;;;;2.17;1.23;;;8.00;99.90;;;;;;4981803;28;20230;-88
2021/03/21 12:44:26;;;;;;;0.87;0.87;;;8.00;99.90;;;;;;4973920;28;20677;-88
2021/03/21 12:46:59;;;;;;;0.53;0.53;;;8.20;99.90;;;;;;4981742;28;20224;-86
2021/03/21 12:49:50;;;;;;;9.43;2.00;;;7.90;99.90;;;;;;4982529;28;20241;-87
2021/03/21 12:52:36;;;;;;;0.90;0.83;;;7.90;99.90;;;;;;4982134;28;20223;-85
2021/03/21 12:55:03;;;;;;;1.37;0.70;;;8.10;99.90;;;;;;4981102;28;20226;-86
2021/03/21 12:57:28;;;;;;;2.87;2.07;;;8.00;99.90;;;;;;4983173;28;20188;-85
2021/03/21 12:59:54;;;;;;;1.57;1.50;;;7.90;99.90;;;;;;4964789;28;20239;-88
2021/03/21 13:02:26;;;;;;;4.93;2.17;;;7.90;99.90;;;;;;4981878;28;20234;-88
2021/03/21 13:04:53;;;;;;;5.00;1.80;;;7.90;99.90;;;;;;4982528;28;20219;-88
2021/03/21 13:07:19;;;;;;;6.57;1.87;;;7.90;99.90;;;;;;4964929;28;20290;-86
2021/03/21 13:09:46;;;;;;;1.33;1.00;;;8.00;99.90;;;;;;4965189;28;20188;-87
2021/03/21 13:12:12;;;;;;;5.40;1.43;;;7.80;99.90;;;;;;4982742;28;20524;-88
2021/03/21 13:14:38;;;;;;;3.27;1.30;;;7.90;99.90;;;;;;4999121;28;20284;-88
2021/03/21 13:17:04;;;;;;;4.63;1.27;;;8.00;99.90;;;;;;4983535;28;20215;-87
2021/03/21 13:19:30;;;;;;;1.87;0.63;;;8.20;99.90;;;;;;4960558;28;20785;-86
2021/03/21 13:21:56;;;;;;;3.93;0.93;;;8.60;99.90;;;;;;4983235;28;20219;-84
2021/03/21 13:24:23;;;;;;;8.03;1.10;;;8.30;99.90;;;;;;4953142;28;20652;-86
2021/03/21 13:26:49;;;;;;;0.20;0.20;;;8.30;99.90;;;;;;4995257;28;20215;-85
2021/03/21 13:29:15;;;;;;;3.57;1.53;;;8.30;99.90;;;;;;4951633;28;20219;-86
2021/03/21 13:31:40;;;;;;;11.00;2.27;;;8.40;99.90;;;;;;4962845;28;20317;-86
2021/03/21 13:34:06;;;;;;;7.53;1.10;;;8.40;99.90;;;;;;4966200;28;20219;-86
2021/03/21 13:36:32;;;;;;;3.53;1.10;;;8.30;99.90;;;;;;4999810;28;20198;-85
2021/03/21 13:38:58;;;;;;;18.57;1.77;;;8.30;99.90;;;;;;4981610;28;20566;-85
2021/03/21 13:41:24;;;;;;;0.20;0.20;;;8.20;99.90;;;;;;4966338;28;20221;-84
2021/03/21 13:43:50;;;;;;;7.40;3.20;;;8.00;99.90;;;;;;4981310;28;20313;-87
2021/03/21 13:46:15;;;;;;;3.13;0.67;;;7.80;99.90;;;;;;4996571;28;20707;-85
2021/03/21 13:48:41;;;;;;;3.80;1.60;;;7.80;99.90;;;;;;4971818;28;20397;-86
2021/03/21 13:51:07;;;;;;;1.17;1.03;;;7.80;99.90;;;;;;4945444;28;21082;-84